createdAt,value
2018-05-28T00:01:08.022Z,17.17
2018-05-28T00:03:35.901Z,17.07
2018-05-28T00:06:03.937Z,17.00
2018-05-28T00:08:30.364Z,16.87
2018-05-28T00:10:56.766Z,17.93
2018-05-28T00:13:23.176Z,18.27
2018-05-28T00:16:03.889Z,18.33
2018-05-28T00:18:43.872Z,20.47
2018-05-28T00:21:10.303Z,20.40
2018-05-28T00:23:36.810Z,20.93
2018-05-28T00:26:03.195Z,20.07
2018-05-28T00:28:30.349Z,21.17
2018-05-28T00:30:57.483Z,20.80
2018-05-28T00:33:23.881Z,22.53
2018-05-28T00:35:50.284Z,23.10
2018-05-28T00:38:16.691Z,22.73
2018-05-28T00:40:43.855Z,23.30
2018-05-28T00:43:10.985Z,23.87
2018-05-28T00:45:37.384Z,24.27
2018-05-28T00:48:03.829Z,23.33
2018-05-28T00:50:30.220Z,22.13
2018-05-28T00:52:56.601Z,23.30
2018-05-28T00:55:35.232Z,24.87
2018-05-28T00:58:01.624Z,26.40
2018-05-28T01:00:28.011Z,25.30
2018-05-28T01:02:55.147Z,23.53
2018-05-28T01:05:22.270Z,24.50
2018-05-28T01:07:48.693Z,25.17
2018-05-28T01:10:15.166Z,22.83
2018-05-28T01:12:42.336Z,21.77
2018-05-28T01:15:09.480Z,22.90
2018-05-28T01:17:36.606Z,23.50
2018-05-28T01:20:03.030Z,23.30
2018-05-28T01:22:29.416Z,23.03
2018-05-28T01:24:55.862Z,25.27
2018-05-28T01:27:22.258Z,25.20
2018-05-28T01:29:49.398Z,24.47
2018-05-28T01:32:15.777Z,22.60
2018-05-28T01:34:42.159Z,21.73
2018-05-28T01:37:08.551Z,22.00
2018-05-28T01:39:34.941Z,23.97
2018-05-28T01:42:02.068Z,25.27
2018-05-28T01:44:28.477Z,27.40
2018-05-28T01:46:54.881Z,29.17
2018-05-28T01:49:21.274Z,31.20
2018-05-28T01:51:47.666Z,30.17
2018-05-28T01:54:14.061Z,32.00
2018-05-28T01:56:40.465Z,30.87
2018-05-28T01:59:06.898Z,31.17
2018-05-28T02:01:33.368Z,31.20
2018-05-28T02:04:00.508Z,30.30
2018-05-28T02:06:27.667Z,30.40
2018-05-28T02:08:54.077Z,30.33
2018-05-28T02:11:21.231Z,31.53
2018-05-28T02:13:48.364Z,30.63
2018-05-28T02:16:14.760Z,33.53
2018-05-28T02:18:41.161Z,32.33
2018-05-28T02:21:07.604Z,33.43
2018-05-28T02:23:34.011Z,33.80
2018-05-28T02:26:01.256Z,31.10
2018-05-28T02:28:27.649Z,30.43
2018-05-28T02:30:54.049Z,35.53
2018-05-28T02:33:20.463Z,31.50
2018-05-28T02:35:47.608Z,35.90
2018-05-28T02:38:14.754Z,35.57
2018-05-28T02:40:41.159Z,32.57
2018-05-28T02:43:07.588Z,34.50
2018-05-28T02:45:33.994Z,31.43
2018-05-28T02:48:00.408Z,34.40
2018-05-28T02:50:27.541Z,32.57
2018-05-28T02:52:53.939Z,33.10
2018-05-28T02:55:20.338Z,31.37
2018-05-28T02:57:46.735Z,29.93
2018-05-28T03:00:13.938Z,32.73
2018-05-28T03:02:40.337Z,31.63
2018-05-28T03:05:07.463Z,34.27
2018-05-28T03:07:35.357Z,33.50
2018-05-28T03:10:01.772Z,31.43
2018-05-28T03:12:28.924Z,31.07
2018-05-28T03:14:56.059Z,31.50
2018-05-28T03:17:23.194Z,32.00
2018-05-28T03:19:49.588Z,32.10
2018-05-28T03:22:16.048Z,32.23
2018-05-28T03:24:42.470Z,31.77
2018-05-28T03:27:08.868Z,30.67
2018-05-28T03:29:38.188Z,32.70
2018-05-28T03:32:04.605Z,34.50
2018-05-28T03:34:31.730Z,35.37
2018-05-28T03:36:58.115Z,32.57
2018-05-28T03:39:24.519Z,31.77
2018-05-28T03:41:51.647Z,34.63
2018-05-28T03:44:18.802Z,33.90
2018-05-28T03:46:45.184Z,34.40
2018-05-28T03:49:11.559Z,31.97
2018-05-28T03:51:38.708Z,33.70
2018-05-28T03:54:05.865Z,34.17
2018-05-28T03:56:33.029Z,34.40
2018-05-28T03:59:00.170Z,33.37
2018-05-28T04:01:39.544Z,34.70
2018-05-28T04:04:18.381Z,33.27
2018-05-28T04:06:44.782Z,36.20
2018-05-28T04:09:11.447Z,36.33
2018-05-28T04:11:37.836Z,31.60
2018-05-28T04:14:04.971Z,34.90
2018-05-28T04:16:32.121Z,33.23
2018-05-28T04:18:59.265Z,34.40
2018-05-28T04:21:26.400Z,33.27
2018-05-28T04:23:52.847Z,31.80
2018-05-28T04:26:20.759Z,31.03
2018-05-28T04:28:47.221Z,33.17
2018-05-28T04:31:13.626Z,31.87
2018-05-28T04:33:40.027Z,31.17
2018-05-28T04:36:07.155Z,28.33
2018-05-28T04:38:33.533Z,30.50
2018-05-28T04:40:59.930Z,31.17
2018-05-28T04:43:26.387Z,32.87
2018-05-28T04:45:53.540Z,32.97
2018-05-28T04:48:20.666Z,32.37
2018-05-28T04:50:47.058Z,30.40
2018-05-28T04:53:13.446Z,36.13
2018-05-28T04:55:40.575Z,34.30
2018-05-28T04:58:06.968Z,31.90
2018-05-28T05:00:33.373Z,32.47
2018-05-28T05:03:00.569Z,32.97
2018-05-28T05:05:26.979Z,32.60
2018-05-28T05:07:53.407Z,34.63
2018-05-28T05:10:19.858Z,36.97
2018-05-28T05:12:46.265Z,38.10
2018-05-28T05:15:12.653Z,36.87
2018-05-28T05:17:39.060Z,35.07
2018-05-28T05:20:05.456Z,32.93
2018-05-28T05:22:31.854Z,35.63
2018-05-28T05:24:58.317Z,36.97
2018-05-28T05:27:24.744Z,32.80
2018-05-28T05:29:52.590Z,31.67
2018-05-28T05:32:19.051Z,31.33
2018-05-28T05:34:45.459Z,31.40
2018-05-28T05:37:12.594Z,29.50
2018-05-28T05:39:38.997Z,25.13
2018-05-28T05:42:05.407Z,25.03
2018-05-28T05:44:31.843Z,24.73
2018-05-28T05:46:58.225Z,27.67
2018-05-28T05:49:24.672Z,24.00
2018-05-28T05:51:51.184Z,24.30
2018-05-28T05:54:17.563Z,25.73
2018-05-28T05:56:44.717Z,21.80
2018-05-28T05:59:11.121Z,22.57
2018-05-28T06:01:37.534Z,22.43
2018-05-28T06:04:05.497Z,21.57
2018-05-28T06:06:31.894Z,18.20
2018-05-28T06:08:58.325Z,18.60
2018-05-28T06:11:24.758Z,18.20
2018-05-28T06:13:51.159Z,19.60
2018-05-28T06:16:17.580Z,19.30
2018-05-28T06:18:44.739Z,18.20
2018-05-28T06:21:12.617Z,16.90
2018-05-28T06:23:39.805Z,18.50
2018-05-28T06:26:06.234Z,17.03
2018-05-28T06:28:32.643Z,18.77
2018-05-28T06:30:59.859Z,17.93
2018-05-28T06:33:27.789Z,19.63
2018-05-28T06:35:54.246Z,17.43
2018-05-28T06:38:20.664Z,18.47
2018-05-28T06:40:47.096Z,17.10
2018-05-28T06:43:13.526Z,19.13
2018-05-28T06:45:39.943Z,18.70
2018-05-28T06:48:06.373Z,18.50
2018-05-28T06:50:32.805Z,22.03
2018-05-28T06:52:59.206Z,16.17
2018-05-28T06:55:25.623Z,16.80
2018-05-28T06:57:52.057Z,16.60
2018-05-28T07:00:18.519Z,21.43
2018-05-28T07:02:45.659Z,17.73
2018-05-28T07:05:12.812Z,16.57
2018-05-28T07:07:39.269Z,15.27
2018-05-28T07:10:05.743Z,19.80
2018-05-28T07:12:32.143Z,16.60
2018-05-28T07:14:58.541Z,14.50
2018-05-28T07:17:24.943Z,14.50
2018-05-28T07:19:51.338Z,15.77
2018-05-28T07:22:18.468Z,12.40
2018-05-28T07:24:45.628Z,15.40
2018-05-28T07:27:12.786Z,12.77
2018-05-28T07:29:39.202Z,12.37
2018-05-28T07:32:06.340Z,11.07
2018-05-28T07:34:34.243Z,12.90
2018-05-28T07:37:00.652Z,12.30
2018-05-28T07:39:27.934Z,11.97
2018-05-28T07:41:54.347Z,13.00
2018-05-28T07:44:21.484Z,12.23
2018-05-28T07:46:48.628Z,14.40
2018-05-28T07:49:15.010Z,13.73
2018-05-28T07:51:41.424Z,14.10
2018-05-28T07:54:07.824Z,12.57
2018-05-28T07:56:34.271Z,13.40
2018-05-28T07:59:01.415Z,13.10
2018-05-28T08:01:28.571Z,11.53
2018-05-28T08:03:55.723Z,11.30
2018-05-28T08:06:22.868Z,11.90
2018-05-28T08:08:49.998Z,12.30
2018-05-28T08:11:16.472Z,12.60
2018-05-28T08:13:43.600Z,10.63
2018-05-28T08:16:10.744Z,11.40
2018-05-28T08:18:38.652Z,12.00
2018-05-28T08:21:05.042Z,10.77
2018-05-28T08:23:31.457Z,11.73
2018-05-28T08:25:57.846Z,11.53
2018-05-28T08:28:24.242Z,11.97
2018-05-28T08:30:50.643Z,11.87
2018-05-28T08:33:17.048Z,12.33
2018-05-28T08:35:43.474Z,12.17
2018-05-28T08:38:09.912Z,10.70
2018-05-28T08:40:36.307Z,10.77
2018-05-28T08:43:02.703Z,11.90
2018-05-28T08:45:29.151Z,11.27
2018-05-28T08:47:55.585Z,10.70
2018-05-28T08:50:22.716Z,11.97
2018-05-28T08:52:49.166Z,12.37
2018-05-28T08:55:17.071Z,13.33
2018-05-28T08:57:44.211Z,12.43
2018-05-28T09:00:11.355Z,11.43
2018-05-28T09:02:37.755Z,11.47
2018-05-28T09:05:04.149Z,13.43
2018-05-28T09:07:31.267Z,12.37
2018-05-28T09:09:57.642Z,13.70
2018-05-28T09:12:24.110Z,14.67
2018-05-28T09:14:50.495Z,14.27
2018-05-28T09:17:17.653Z,13.80
2018-05-28T09:19:44.052Z,12.67
2018-05-28T09:22:11.204Z,15.40
2018-05-28T09:24:37.597Z,13.67
2018-05-28T09:27:04.022Z,14.10
2018-05-28T09:29:30.414Z,13.93
2018-05-28T09:31:57.588Z,16.23
2018-05-28T09:34:23.990Z,15.33
2018-05-28T09:36:51.139Z,15.70
2018-05-28T09:39:17.544Z,16.63
2018-05-28T09:41:43.984Z,15.60
2018-05-28T09:44:10.402Z,19.73
2018-05-28T09:46:36.790Z,14.80
2018-05-28T09:49:03.311Z,16.80
2018-05-28T09:51:30.491Z,16.20
2018-05-28T09:53:56.964Z,14.70
2018-05-28T09:56:23.374Z,13.77
2018-05-28T09:58:49.790Z,12.90
2018-05-28T10:01:16.187Z,13.87
2018-05-28T10:03:43.344Z,14.07
2018-05-28T10:06:10.521Z,13.77
2018-05-28T10:08:36.936Z,15.17
2018-05-28T10:11:04.085Z,15.60
2018-05-28T10:13:31.248Z,14.93
2018-05-28T10:15:57.714Z,13.80
2018-05-28T10:18:24.145Z,15.40
2018-05-28T10:20:50.551Z,15.07
2018-05-28T10:23:16.935Z,14.70
2018-05-28T10:25:43.330Z,14.67
2018-05-28T10:28:09.748Z,14.23
2018-05-28T10:30:36.208Z,14.17
2018-05-28T10:33:03.343Z,14.27
2018-05-28T10:35:29.752Z,14.60
2018-05-28T10:37:56.903Z,13.67
2018-05-28T10:40:24.042Z,15.20
2018-05-28T10:42:51.907Z,14.37
2018-05-28T10:45:19.071Z,13.70
2018-05-28T10:47:46.208Z,14.77
2018-05-28T10:50:12.603Z,14.97
2018-05-28T10:52:39.047Z,15.57
2018-05-28T10:55:12.467Z,15.30
2018-05-28T10:57:38.934Z,15.47
2018-05-28T11:00:05.382Z,15.27
2018-05-28T11:02:31.776Z,14.13
2018-05-28T11:04:58.945Z,13.20
2018-05-28T11:07:26.063Z,15.00
2018-05-28T11:09:52.454Z,13.43
2018-05-28T11:12:18.836Z,15.27
2018-05-28T11:14:45.985Z,16.23
2018-05-28T11:17:13.124Z,15.23
2018-05-28T11:19:39.500Z,15.37
2018-05-28T11:22:05.900Z,16.30
2018-05-28T11:24:32.302Z,14.50
2018-05-28T11:26:58.693Z,15.77
2018-05-28T11:29:25.088Z,13.97
2018-05-28T11:31:51.565Z,15.50
2018-05-28T11:34:17.952Z,15.10
2018-05-28T11:36:44.357Z,14.97
2018-05-28T11:39:10.824Z,15.90
2018-05-28T11:41:37.169Z,16.57
2018-05-28T11:44:04.327Z,15.70
2018-05-28T11:46:31.526Z,15.37
2018-05-28T11:48:57.911Z,16.90
2018-05-28T11:51:25.039Z,15.20
2018-05-28T11:53:51.421Z,16.50
2018-05-28T11:56:17.827Z,16.27
2018-05-28T11:58:44.987Z,17.17
2018-05-28T12:01:11.437Z,16.37
2018-05-28T12:03:37.769Z,16.80
2018-05-28T12:06:04.192Z,16.03
2018-05-28T12:08:30.638Z,16.90
2018-05-28T12:10:57.672Z,16.97
2018-05-28T12:13:24.064Z,16.97
2018-05-28T12:15:50.485Z,16.20
2018-05-28T12:18:16.891Z,15.63
2018-05-28T12:20:43.410Z,16.97
2018-05-28T12:23:10.519Z,18.77
2018-05-28T12:25:36.926Z,17.67
2018-05-28T12:28:03.351Z,17.37
2018-05-28T12:30:29.738Z,18.77
2018-05-28T12:32:56.866Z,19.43
2018-05-28T12:35:23.260Z,19.73
2018-05-28T12:37:49.677Z,18.87
2018-05-28T12:40:16.123Z,18.40
2018-05-28T12:42:42.515Z,17.10
2018-05-28T12:45:09.658Z,17.00
2018-05-28T12:47:36.089Z,17.90
2018-05-28T12:50:03.300Z,17.27
2018-05-28T12:52:29.724Z,16.37
2018-05-28T12:54:56.113Z,18.00
2018-05-28T12:57:22.505Z,17.50
2018-05-28T12:59:48.923Z,17.60
2018-05-28T13:02:15.331Z,17.57
2018-05-28T13:04:41.734Z,16.83
2018-05-28T13:07:08.888Z,17.97
2018-05-28T13:09:35.288Z,17.73
2018-05-28T13:12:01.713Z,18.03
2018-05-28T13:14:28.134Z,19.23
2018-05-28T13:16:54.535Z,16.83
2018-05-28T13:19:21.673Z,16.40
2018-05-28T13:21:48.888Z,19.20
2018-05-28T13:24:15.292Z,18.40
2018-05-28T13:26:41.722Z,17.87
2018-05-28T13:29:08.130Z,18.00
2018-05-28T13:31:35.297Z,17.17
2018-05-28T13:34:01.729Z,18.40
2018-05-28T13:36:28.147Z,18.47
2018-05-28T13:38:55.317Z,17.50
2018-05-28T13:41:21.724Z,17.03
2018-05-28T13:43:48.921Z,16.43
2018-05-28T13:46:15.321Z,16.57
2018-05-28T13:48:42.500Z,15.20
2018-05-28T13:51:08.906Z,16.90
2018-05-28T13:53:35.305Z,17.10
2018-05-28T13:56:01.716Z,16.73
2018-05-28T13:58:28.126Z,16.77
2018-05-28T14:00:54.529Z,16.90
2018-05-28T14:03:21.689Z,17.87
2018-05-28T14:05:48.108Z,16.70
2018-05-28T14:08:14.512Z,16.30
2018-05-28T14:10:42.417Z,17.53
2018-05-28T14:13:09.566Z,18.40
2018-05-28T14:15:35.986Z,16.57
2018-05-28T14:18:02.426Z,16.80
2018-05-28T14:20:28.840Z,18.90
2018-05-28T14:22:56.284Z,18.10
2018-05-28T14:25:24.158Z,17.77
2018-05-28T14:27:50.534Z,17.47
2018-05-28T14:30:16.965Z,16.47
2018-05-28T14:32:44.090Z,17.90
2018-05-28T14:35:10.484Z,15.63
2018-05-28T14:37:36.890Z,18.27
2018-05-28T14:40:03.299Z,16.50
2018-05-28T14:42:30.444Z,15.63
2018-05-28T14:44:57.591Z,16.20
2018-05-28T14:47:23.996Z,17.00
2018-05-28T14:49:50.400Z,17.20
2018-05-28T14:52:16.808Z,17.03
2018-05-28T14:54:43.204Z,15.93
2018-05-28T14:57:09.570Z,17.33
2018-05-28T14:59:36.705Z,17.90
2018-05-28T15:02:04.606Z,16.17
2018-05-28T15:04:31.017Z,16.57
2018-05-28T15:06:58.152Z,16.70
2018-05-28T15:09:26.018Z,16.67
2018-05-28T15:11:53.176Z,16.00
2018-05-28T15:14:19.572Z,17.17
2018-05-28T15:16:46.058Z,15.60
2018-05-28T15:19:12.466Z,16.00
2018-05-28T15:21:38.865Z,17.03
2018-05-28T15:24:05.324Z,16.00
2018-05-28T15:26:31.721Z,15.17
2018-05-28T15:28:58.160Z,14.93
2018-05-28T15:31:24.544Z,15.23
2018-05-28T15:33:51.684Z,16.17
2018-05-28T15:36:18.164Z,15.60
2018-05-28T15:38:45.335Z,16.37
2018-05-28T15:41:11.756Z,15.53
2018-05-28T15:43:38.230Z,14.40
2018-05-28T15:46:06.145Z,16.23
2018-05-28T15:48:32.568Z,15.03
2018-05-28T15:50:59.698Z,14.40
2018-05-28T15:53:26.101Z,15.53
2018-05-28T15:55:53.987Z,16.50
2018-05-28T15:58:20.392Z,15.90
2018-05-28T16:00:46.786Z,15.17
2018-05-28T16:03:13.162Z,16.13
2018-05-28T16:05:39.549Z,15.40
2018-05-28T16:08:05.981Z,15.50
2018-05-28T16:10:33.163Z,15.07
2018-05-28T16:12:59.563Z,15.90
2018-05-28T16:15:25.950Z,16.80
2018-05-28T16:17:52.345Z,14.80
2018-05-28T16:20:19.290Z,15.40
2018-05-28T16:22:45.717Z,15.20
2018-05-28T16:25:12.157Z,16.60
2018-05-28T16:27:38.579Z,16.50
2018-05-28T16:30:11.837Z,15.30
2018-05-28T16:32:38.228Z,15.67
2018-05-28T16:35:04.664Z,15.30
2018-05-28T16:37:31.112Z,16.30
2018-05-28T16:39:57.565Z,17.53
2018-05-28T16:42:23.915Z,15.47
2018-05-28T16:44:50.312Z,15.73
2018-05-28T16:47:16.697Z,16.37
2018-05-28T16:49:43.094Z,16.53
2018-05-28T16:52:09.490Z,16.60
2018-05-28T16:54:35.896Z,17.53
2018-05-28T16:57:02.281Z,17.27
2018-05-28T16:59:28.667Z,17.17
2018-05-28T17:01:55.054Z,18.67
2018-05-28T17:04:22.919Z,16.37
2018-05-28T17:06:49.293Z,16.53
2018-05-28T17:09:15.676Z,17.00
2018-05-28T17:11:42.068Z,20.10
2018-05-28T17:14:08.454Z,19.70
2018-05-28T17:16:34.838Z,25.60
2018-05-28T17:19:01.242Z,15.27
2018-05-28T17:21:28.415Z,16.40
2018-05-28T17:23:54.828Z,19.73
2018-05-28T17:26:21.258Z,16.27
2018-05-28T17:28:48.402Z,17.17
2018-05-28T17:31:15.556Z,16.00
2018-05-28T17:33:42.681Z,16.20
2018-05-28T17:36:09.073Z,14.97
2018-05-28T17:38:37.454Z,16.73
2018-05-28T17:41:03.995Z,15.47
2018-05-28T17:43:30.406Z,14.57
2018-05-28T17:45:56.792Z,16.47
2018-05-28T17:48:23.951Z,16.90
2018-05-28T17:50:50.375Z,16.83
2018-05-28T17:53:16.769Z,15.43
2018-05-28T17:55:43.182Z,15.73
2018-05-28T17:58:09.588Z,16.80
2018-05-28T18:00:36.802Z,15.73
2018-05-28T18:03:04.434Z,16.03
2018-05-28T18:05:30.866Z,15.90
2018-05-28T18:07:57.269Z,14.30
2018-05-28T18:10:23.670Z,14.43
2018-05-28T18:12:50.076Z,17.50
2018-05-28T18:15:16.492Z,16.80
2018-05-28T18:17:42.894Z,15.97
2018-05-28T18:20:10.045Z,12.37
2018-05-28T18:22:37.213Z,13.27
2018-05-28T18:25:04.377Z,11.43
2018-05-28T18:40:33.096Z,11.53
2018-05-28T18:42:59.482Z,11.63
2018-05-28T18:45:26.677Z,11.30
2018-05-28T18:47:53.086Z,11.87
2018-05-28T18:50:19.492Z,11.00
2018-05-28T18:52:46.647Z,11.60
2018-05-28T18:55:13.038Z,11.50
2018-05-28T18:57:39.441Z,11.00
2018-05-28T19:00:05.880Z,12.00
2018-05-28T19:02:32.317Z,11.17
2018-05-28T19:04:58.716Z,11.50
2018-05-28T19:07:25.139Z,11.30
2018-05-28T19:09:52.299Z,11.10
2018-05-28T19:12:20.307Z,9.30
2018-05-28T19:14:46.716Z,10.43
2018-05-28T19:17:13.085Z,9.57
2018-05-28T19:19:39.980Z,9.73
2018-05-28T19:22:06.368Z,8.57
2018-05-28T19:24:32.776Z,9.53
2018-05-28T19:26:59.188Z,8.20
2018-05-28T19:29:25.609Z,8.27
2018-05-28T19:31:52.020Z,8.33
2018-05-28T19:34:19.187Z,7.80
2018-05-28T19:36:46.343Z,9.07
2018-05-28T19:39:13.601Z,8.10
2018-05-28T19:41:40.004Z,7.77
2018-05-28T19:44:07.151Z,7.87
2018-05-28T19:46:33.624Z,7.83
2018-05-28T19:49:00.583Z,8.03
2018-05-28T19:51:27.404Z,8.27
2018-05-28T19:53:53.836Z,18.27
2018-05-28T19:56:20.237Z,10.67
2018-05-28T19:58:46.781Z,9.27
2018-05-28T20:01:13.917Z,9.50
2018-05-28T20:03:41.809Z,9.90
2018-05-28T20:06:08.974Z,10.90
2018-05-28T20:08:35.378Z,10.57
2018-05-28T20:11:01.788Z,11.23
2018-05-28T20:13:28.193Z,11.60
2018-05-28T20:15:54.591Z,10.80
2018-05-28T20:18:21.737Z,12.53
2018-05-28T20:20:48.864Z,11.97
2018-05-28T20:23:15.248Z,12.53
2018-05-28T20:25:41.642Z,12.00
2018-05-28T20:28:08.821Z,12.20
2018-05-28T20:30:35.284Z,12.50
2018-05-28T20:33:01.682Z,12.67
2018-05-28T20:35:28.116Z,12.90
2018-05-28T20:37:54.594Z,13.80
2018-05-28T20:40:20.968Z,14.97
2018-05-28T20:42:48.229Z,13.20
2018-05-28T20:45:15.357Z,12.83
2018-05-28T20:47:41.857Z,13.20
2018-05-28T20:50:08.425Z,13.07
2018-05-28T20:52:35.585Z,14.23
2018-05-28T20:55:02.735Z,14.17
2018-05-28T20:57:29.915Z,15.60
2018-05-28T20:59:57.052Z,15.27
2018-05-28T21:02:24.207Z,14.03
2018-05-28T21:04:50.643Z,13.67
2018-05-28T21:07:17.037Z,14.73
2018-05-28T21:09:43.445Z,13.37
2018-05-28T21:12:09.836Z,14.30
2018-05-28T21:14:37.008Z,14.80
2018-05-28T21:17:03.390Z,13.13
2018-05-28T21:19:29.803Z,14.00
2018-05-28T21:21:56.210Z,12.23
2018-05-28T21:24:22.606Z,13.70
2018-05-28T21:26:49.781Z,13.10
2018-05-28T21:29:16.172Z,12.73
2018-05-28T21:31:42.575Z,14.23
2018-05-28T21:34:08.975Z,13.30
2018-05-28T21:36:35.381Z,13.57
2018-05-28T21:39:02.590Z,15.10
2018-05-28T21:41:28.995Z,13.23
2018-05-28T21:43:55.381Z,13.50
2018-05-28T21:46:21.789Z,13.97
2018-05-28T21:48:48.285Z,14.00
2018-05-28T21:51:15.420Z,12.90
2018-05-28T21:53:42.559Z,14.63
2018-05-28T21:56:09.695Z,13.17
2018-05-28T21:58:36.836Z,13.67
2018-05-28T22:01:05.258Z,13.20
2018-05-28T22:03:32.385Z,14.30
2018-05-28T22:05:59.524Z,12.80
2018-05-28T22:08:25.920Z,15.13
2018-05-28T22:10:52.326Z,14.23
2018-05-28T22:13:18.746Z,13.77
2018-05-28T22:15:45.890Z,13.53
2018-05-28T22:18:12.275Z,13.43
2018-05-28T22:20:38.681Z,15.00
2018-05-28T22:23:05.092Z,14.57
2018-05-28T22:25:32.232Z,15.10
2018-05-28T22:27:59.344Z,15.20
2018-05-28T22:30:25.730Z,13.37
2018-05-28T22:32:52.869Z,14.50
2018-05-28T22:35:19.996Z,14.77
2018-05-28T22:37:46.378Z,14.80
2018-05-28T22:40:13.520Z,14.10
2018-05-28T22:42:39.914Z,15.20
2018-05-28T22:45:06.320Z,15.90
2018-05-28T22:47:32.721Z,15.67
2018-05-28T22:49:59.106Z,16.63
2018-05-28T22:52:25.504Z,16.23
2018-05-28T22:54:51.955Z,14.03
2018-05-28T22:57:18.356Z,15.70
2018-05-28T22:59:44.779Z,14.47
2018-05-28T23:02:11.168Z,14.83
2018-05-28T23:04:37.553Z,14.30
2018-05-28T23:07:03.949Z,14.80
2018-05-28T23:09:30.332Z,15.00
2018-05-28T23:11:56.733Z,15.53
2018-05-28T23:14:23.137Z,15.67
2018-05-28T23:16:49.530Z,15.23
2018-05-28T23:19:15.914Z,15.80
2018-05-28T23:21:42.317Z,16.40
2018-05-28T23:24:08.725Z,15.33
2018-05-28T23:26:35.145Z,14.57
2018-05-28T23:29:01.549Z,15.07
2018-05-28T23:31:28.678Z,14.20
2018-05-28T23:33:55.078Z,15.10
2018-05-28T23:36:21.482Z,15.07
2018-05-28T23:38:48.643Z,16.60
2018-05-28T23:41:15.074Z,15.63
2018-05-28T23:43:41.479Z,15.87
2018-05-28T23:46:08.640Z,15.23
2018-05-28T23:48:35.785Z,14.33
2018-05-28T23:51:02.930Z,15.50
2018-05-28T23:53:29.316Z,16.83
2018-05-28T23:55:55.716Z,16.63
2018-05-28T23:58:22.097Z,16.97
